createdAt,value
2022-10-23T00:06:34.358Z,33.60
2022-10-23T00:18:06.117Z,32.30
2022-10-23T00:30:05.019Z,32.00
2022-10-23T00:52:09.933Z,48.80
2022-10-23T01:14:17.873Z,39.50
2022-10-23T01:48:00.607Z,37.90
2022-10-23T01:59:01.811Z,44.40
2022-10-23T02:10:35.413Z,42.30
2022-10-23T02:21:46.998Z,45.50
2022-10-23T02:45:04.782Z,54.00
2022-10-23T03:07:18.527Z,58.10
2022-10-23T03:18:34.478Z,53.10
2022-10-23T03:29:46.379Z,55.60
2022-10-23T03:40:14.457Z,48.20
2022-10-23T03:51:01.450Z,48.60
2022-10-23T04:03:48.339Z,52.10
2022-10-23T04:13:03.521Z,56.50
2022-10-23T04:23:58.309Z,50.10
2022-10-23T04:45:53.921Z,51.60
2022-10-23T04:56:45.532Z,56.40
2022-10-23T05:07:39.255Z,49.70
2022-10-23T05:18:18.001Z,52.30
2022-10-23T05:28:54.798Z,46.00
2022-10-23T05:39:50.094Z,49.40
2022-10-23T06:14:12.022Z,37.10
2022-10-23T06:25:13.385Z,35.50
2022-10-23T06:47:13.787Z,37.90
2022-10-23T06:58:18.238Z,36.40
2022-10-23T07:09:36.755Z,37.60
2022-10-23T07:31:42.401Z,34.10
2022-10-23T08:05:36.577Z,32.50
2022-10-23T08:31:19.255Z,29.30
2022-10-23T08:39:24.232Z,31.40
2022-10-23T09:15:38.038Z,29.20
2022-10-23T10:04:35.028Z,20.30
2022-10-23T10:25:16.299Z,19.40
2022-10-23T11:00:53.575Z,17.50
2022-10-23T11:12:03.594Z,15.60
2022-10-23T11:23:20.527Z,18.30
2022-10-23T11:33:55.386Z,18.80
2022-10-23T11:44:22.048Z,14.60
2022-10-23T11:54:28.325Z,17.00
2022-10-23T12:04:50.950Z,17.30
2022-10-23T12:15:19.876Z,17.50
2022-10-23T12:26:17.613Z,15.20
2022-10-23T12:36:53.355Z,16.50
2022-10-23T12:47:06.993Z,15.70
2022-10-23T12:57:33.633Z,21.90
2022-10-23T13:07:43.087Z,17.20
2022-10-23T13:18:03.214Z,19.60
2022-10-23T13:28:37.703Z,20.30
2022-10-23T13:39:02.449Z,21.80
2022-10-23T13:49:06.466Z,22.40
2022-10-23T13:59:14.048Z,21.20
2022-10-23T14:09:19.405Z,20.40
2022-10-23T14:29:25.947Z,17.20
2022-10-23T14:39:29.314Z,17.20
2022-10-23T14:49:35.799Z,15.90
2022-10-23T14:59:39.302Z,15.00
2022-10-23T15:09:44.752Z,16.60
2022-10-23T15:19:53.798Z,20.80
2022-10-23T15:30:31.021Z,21.90
2022-10-23T15:41:16.532Z,22.10
2022-10-23T16:02:58.781Z,20.90
2022-10-23T16:25:29.427Z,25.20
2022-10-23T16:37:52.262Z,22.90
2022-10-23T16:48:25.086Z,33.50
2022-10-23T16:59:10.899Z,31.10
2022-10-23T17:09:42.852Z,30.90
2022-10-23T17:20:17.642Z,26.40
2022-10-23T17:30:39.155Z,29.00
2022-10-23T17:41:17.910Z,30.00
2022-10-23T17:51:39.460Z,36.00
2022-10-23T18:02:05.486Z,32.10
2022-10-23T18:36:02.342Z,25.00
2022-10-23T18:46:13.702Z,30.30
2022-10-23T18:56:29.687Z,34.90
2022-10-23T19:07:40.342Z,27.00
2022-10-23T19:29:30.742Z,32.60
2022-10-23T19:39:51.590Z,32.90
2022-10-23T19:50:14.188Z,43.20
2022-10-23T20:02:06.250Z,46.70
2022-10-23T20:12:56.520Z,36.10
2022-10-23T20:34:32.985Z,40.20
2022-10-23T20:45:27.041Z,32.50
2022-10-23T20:55:57.487Z,32.50
2022-10-23T21:06:41.021Z,40.90
2022-10-23T21:17:23.724Z,36.50
2022-10-23T21:27:55.498Z,40.00
2022-10-23T21:48:24.426Z,37.90
2022-10-23T21:58:41.851Z,37.60
2022-10-23T22:09:04.194Z,44.40
2022-10-23T22:19:24.810Z,37.40
2022-10-23T22:51:51.001Z,40.00
2022-10-23T23:02:23.370Z,40.40
2022-10-23T23:13:28.913Z,39.90
2022-10-23T23:24:20.710Z,37.70
2022-10-23T23:35:33.496Z,38.90
2022-10-23T23:46:46.553Z,43.90
